Time;durP1;ratioP1;P1;durP2;ratioP2;P2;SDS_P1;SDS_P2;PMS_P1;PMS_P2;Temp;Humidity;BMP_temperature;BMP_pressure;BME280_temperature;BME280_humidity;BME280_pressure;Samples;Min_cycle;Max_cycle;Signal;HPM_P1;HPM_P2
2021/03/09 00:01:31;;;;;;;37.28;20.60;;;;;;;;;;5015196;28;20026;-45
2021/03/09 00:03:57;;;;;;;49.88;25.50;;;;;;;;;;5015441;28;20033;-44
2021/03/09 00:06:23;;;;;;;45.78;23.83;;;;;;;;;;5015095;28;20108;-45
2021/03/09 00:08:49;;;;;;;47.13;23.50;;;;;;;;;;5015522;28;20056;-45
2021/03/09 00:11:15;;;;;;;50.53;27.63;;;;;;;;;;5015157;28;20454;-45
2021/03/09 00:13:41;;;;;;;51.42;25.90;;;;;;;;;;5015696;28;20026;-45
2021/03/09 00:16:07;;;;;;;48.20;25.15;;;;;;;;;;5015059;28;20026;-44
2021/03/09 00:18:33;;;;;;;39.38;22.42;;;;;;;;;;5015237;28;20028;-45
2021/03/09 00:20:59;;;;;;;45.05;23.52;;;;;;;;;;5015124;28;20353;-44
2021/03/09 00:23:25;;;;;;;38.17;21.55;;;;;;;;;;5015069;28;20042;-45
2021/03/09 00:25:51;;;;;;;38.45;20.60;;;;;;;;;;5015235;28;20040;-45
2021/03/09 00:28:21;;;;;;;42.60;21.80;;;;;;;;;;5015144;28;20361;-45
2021/03/09 00:30:47;;;;;;;35.80;19.17;;;;;;;;;;5014714;28;20038;-44
2021/03/09 00:33:13;;;;;;;36.90;19.50;;;;;;;;;;5014778;28;20535;-45
2021/03/09 00:35:39;;;;;;;35.92;18.13;;;;;;;;;;5014655;28;20029;-45
2021/03/09 00:38:06;;;;;;;35.10;19.38;;;;;;;;;;5014743;28;20033;-44
2021/03/09 00:40:32;;;;;;;34.92;19.35;;;;;;;;;;5014786;28;20078;-45
2021/03/09 00:42:58;;;;;;;38.00;21.08;;;;;;;;;;5014581;28;20036;-44
2021/03/09 00:45:24;;;;;;;42.05;20.15;;;;;;;;;;5014179;28;20481;-44
2021/03/09 00:47:50;;;;;;;33.33;19.58;;;;;;;;;;5014189;28;20050;-45
2021/03/09 00:50:16;;;;;;;32.97;18.85;;;;;;;;;;5014363;28;20034;-44
2021/03/09 00:52:42;;;;;;;36.75;20.15;;;;;;;;;;5014870;28;20037;-46
2021/03/09 00:55:08;;;;;;;40.67;21.48;;;;;;;;;;5014398;28;20076;-47
2021/03/09 00:57:34;;;;;;;35.17;19.55;;;;;;;;;;5014288;28;20021;-45
2021/03/09 01:00:01;;;;;;;33.58;18.00;;;;;;;;;;5014285;28;20413;-44
2021/03/09 01:02:27;;;;;;;48.15;22.20;;;;;;;;;;5014391;28;20061;-44
2021/03/09 01:04:53;;;;;;;36.65;19.45;;;;;;;;;;5013933;28;20033;-45
2021/03/09 01:07:19;;;;;;;36.67;19.63;;;;;;;;;;5014412;28;20347;-45
2021/03/09 01:09:45;;;;;;;38.15;20.92;;;;;;;;;;5014011;28;20038;-49
2021/03/09 01:12:11;;;;;;;40.35;21.92;;;;;;;;;;5014513;28;20022;-45
2021/03/09 01:14:37;;;;;;;42.47;23.35;;;;;;;;;;5014012;28;20056;-47
2021/03/09 01:17:03;;;;;;;40.05;23.15;;;;;;;;;;5013765;28;20022;-45
2021/03/09 01:19:29;;;;;;;43.95;22.77;;;;;;;;;;5013969;28;20025;-44
2021/03/09 01:21:55;;;;;;;42.72;22.85;;;;;;;;;;5014154;28;20026;-45
2021/03/09 01:24:21;;;;;;;46.45;24.77;;;;;;;;;;5013798;28;20037;-46
2021/03/09 01:26:48;;;;;;;44.08;24.15;;;;;;;;;;5014053;28;20057;-44
2021/03/09 01:29:14;;;;;;;40.60;22.38;;;;;;;;;;5014197;28;20037;-46
2021/03/09 01:31:40;;;;;;;41.55;23.13;;;;;;;;;;5013544;28;20025;-46
2021/03/09 01:34:06;;;;;;;40.03;22.30;;;;;;;;;;5013742;28;20095;-44
2021/03/09 01:36:32;;;;;;;40.92;22.23;;;;;;;;;;5013664;28;20033;-46
2021/03/09 01:38:58;;;;;;;39.90;21.75;;;;;;;;;;5013938;28;20133;-49
2021/03/09 01:41:24;;;;;;;37.45;20.33;;;;;;;;;;5013471;28;20485;-45
2021/03/09 01:43:50;;;;;;;43.22;23.08;;;;;;;;;;5014253;28;20384;-47
2021/03/09 01:46:18;;;;;;;45.88;24.85;;;;;;;;;;5013826;28;20112;-47
2021/03/09 01:48:45;;;;;;;47.55;24.83;;;;;;;;;;5014264;28;20554;-44
2021/03/09 01:51:18;;;;;;;45.28;24.30;;;;;;;;;;5014027;28;20370;-46
2021/03/09 01:53:44;;;;;;;45.40;25.95;;;;;;;;;;5014179;28;20393;-46
2021/03/09 01:56:11;;;;;;;46.85;24.10;;;;;;;;;;5013964;28;20037;-45
2021/03/09 01:58:40;;;;;;;44.45;22.20;;;;;;;;;;5013706;28;20048;-47
2021/03/09 02:01:06;;;;;;;46.33;24.38;;;;;;;;;;5013392;28;20117;-46
2021/03/09 02:03:32;;;;;;;42.75;24.05;;;;;;;;;;5013345;28;20033;-46
2021/03/09 02:05:58;;;;;;;36.83;22.92;;;;;;;;;;5013559;28;20072;-45
2021/03/09 02:08:25;;;;;;;35.97;20.65;;;;;;;;;;5013378;28;20026;-46
2021/03/09 02:10:51;;;;;;;35.17;19.77;;;;;;;;;;4995865;28;20021;-44
2021/03/09 02:13:36;;;;;;;39.85;21.60;;;;;;;;;;5012982;28;20014;-45
2021/03/09 02:16:14;;;;;;;37.53;22.00;;;;;;;;;;5013527;28;20026;-48
2021/03/09 02:18:53;;;;;;;40.85;21.90;;;;;;;;;;5013572;28;20091;-47
2021/03/09 02:21:29;;;;;;;38.90;22.67;;;;;;;;;;5013656;28;20113;-53
2021/03/09 02:24:01;;;;;;;43.28;22.70;;;;;;;;;;5013486;28;20088;-49
2021/03/09 02:26:41;;;;;;;47.30;26.30;;;;;;;;;;5013485;28;20092;-49
2021/03/09 02:29:26;;;;;;;41.97;23.60;;;;;;;;;;5013164;28;20029;-53
2021/03/09 02:31:54;;;;;;;47.60;24.58;;;;;;;;;;5013245;28;20045;-51
2021/03/09 02:34:41;;;;;;;43.40;24.23;;;;;;;;;;5012797;28;20021;-47
2021/03/09 02:37:09;;;;;;;43.17;24.48;;;;;;;;;;5013018;28;20487;-50
2021/03/09 02:39:36;;;;;;;42.55;23.90;;;;;;;;;;5012942;28;20029;-48
2021/03/09 02:42:04;;;;;;;42.25;22.38;;;;;;;;;;5012994;28;20477;-46
2021/03/09 02:44:31;;;;;;;43.83;23.70;;;;;;;;;;5012942;28;20026;-46
2021/03/09 02:46:58;;;;;;;43.20;23.92;;;;;;;;;;5012566;28;20085;-46
2021/03/09 02:49:27;;;;;;;40.80;23.02;;;;;;;;;;5012731;28;20615;-48
2021/03/09 02:51:53;;;;;;;37.90;22.08;;;;;;;;;;5012911;28;20026;-46
2021/03/09 02:54:21;;;;;;;36.83;21.05;;;;;;;;;;5013232;28;20026;-45
2021/03/09 02:56:48;;;;;;;40.97;22.42;;;;;;;;;;5013016;28;20422;-44
2021/03/09 03:01:50;;;;;;;34.40;19.73;;;;;;;;;;4790278;26;20560;-47
2021/03/09 03:04:18;;;;;;;35.63;19.65;;;;;;;;;;5011624;28;20029;-45
2021/03/09 03:06:48;;;;;;;39.22;20.63;;;;;;;;;;5011670;28;20026;-46
2021/03/09 03:09:16;;;;;;;38.33;20.90;;;;;;;;;;5011519;28;20497;-44
2021/03/09 03:11:43;;;;;;;31.65;17.90;;;;;;;;;;5011624;28;20022;-44
2021/03/09 03:14:09;;;;;;;32.03;17.67;;;;;;;;;;5011582;28;20056;-45
2021/03/09 03:16:38;;;;;;;38.60;17.90;;;;;;;;;;5011630;28;20033;-47
2021/03/09 03:19:06;;;;;;;33.03;18.52;;;;;;;;;;5011786;28;20029;-46
2021/03/09 03:21:33;;;;;;;30.05;18.23;;;;;;;;;;5011526;28;20428;-46
2021/03/09 03:24:01;;;;;;;31.85;17.92;;;;;;;;;;5012993;28;20026;-45
2021/03/09 03:26:28;;;;;;;27.83;16.23;;;;;;;;;;5015729;28;20475;-49
2021/03/09 03:28:55;;;;;;;26.77;16.92;;;;;;;;;;5015478;28;20034;-45
2021/03/09 03:31:21;;;;;;;26.65;15.02;;;;;;;;;;5015232;28;20021;-47
2021/03/09 03:33:48;;;;;;;26.83;15.65;;;;;;;;;;5015296;28;20064;-44
2021/03/09 03:36:14;;;;;;;27.55;15.57;;;;;;;;;;5015280;28;20025;-47
2021/03/09 03:38:41;;;;;;;31.25;16.17;;;;;;;;;;5015248;28;20022;-43
2021/03/09 03:41:08;;;;;;;26.38;14.63;;;;;;;;;;5015167;28;20018;-44
2021/03/09 03:43:34;;;;;;;27.55;14.10;;;;;;;;;;5015088;28;20025;-46
2021/03/09 03:46:01;;;;;;;36.85;17.05;;;;;;;;;;5014980;28;20477;-45
2021/03/09 03:48:27;;;;;;;41.55;19.42;;;;;;;;;;5015352;28;20112;-44
2021/03/09 03:50:54;;;;;;;40.63;19.10;;;;;;;;;;5015023;28;20037;-47
2021/03/09 03:53:21;;;;;;;42.50;18.98;;;;;;;;;;5014939;28;20053;-45
2021/03/09 03:56:05;;;;;;;36.08;18.50;;;;;;;;;;5014870;28;20033;-46
2021/03/09 03:58:38;;;;;;;38.13;18.42;;;;;;;;;;5014888;28;20080;-45
2021/03/09 04:01:07;;;;;;;42.88;19.38;;;;;;;;;;5014503;28;20042;-46
2021/03/09 04:03:33;;;;;;;45.10;19.27;;;;;;;;;;5014703;28;20022;-44
2021/03/09 04:06:01;;;;;;;46.15;18.83;;;;;;;;;;5014873;28;20346;-46
2021/03/09 04:08:27;;;;;;;48.45;19.25;;;;;;;;;;5014761;28;20041;-48
2021/03/09 04:10:54;;;;;;;48.58;19.08;;;;;;;;;;5014526;28;20052;-46
2021/03/09 04:13:20;;;;;;;39.47;16.33;;;;;;;;;;5014573;28;20057;-49
2021/03/09 04:15:47;;;;;;;40.10;17.35;;;;;;;;;;5014351;28;20022;-45
2021/03/09 04:18:15;;;;;;;38.50;16.83;;;;;;;;;;5014371;28;20034;-48
2021/03/09 04:20:42;;;;;;;36.72;17.98;;;;;;;;;;5014352;28;20086;-48
2021/03/09 04:23:08;;;;;;;29.92;16.48;;;;;;;;;;5014355;28;20029;-47
2021/03/09 04:25:35;;;;;;;26.02;14.10;;;;;;;;;;5014342;28;20025;-46
2021/03/09 04:28:04;;;;;;;26.05;14.75;;;;;;;;;;5014372;28;20034;-46
2021/03/09 04:30:33;;;;;;;28.65;16.73;;;;;;;;;;5014185;28;20033;-48
2021/03/09 04:33:00;;;;;;;27.38;15.68;;;;;;;;;;5014364;28;20022;-47
2021/03/09 04:35:26;;;;;;;23.88;14.02;;;;;;;;;;5013400;28;20034;-46
2021/03/09 04:37:53;;;;;;;27.05;14.20;;;;;;;;;;5014046;28;20030;-50
2021/03/09 04:40:19;;;;;;;24.50;13.88;;;;;;;;;;5014077;28;20026;-48
2021/03/09 04:42:45;;;;;;;21.83;13.27;;;;;;;;;;5014080;28;20465;-47
2021/03/09 04:45:11;;;;;;;40.55;18.33;;;;;;;;;;5013875;28;20061;-46
2021/03/09 04:47:38;;;;;;;42.40;18.20;;;;;;;;;;5013720;28;20312;-47
2021/03/09 04:50:06;;;;;;;37.65;18.33;;;;;;;;;;5013783;28;20049;-48
2021/03/09 04:52:32;;;;;;;44.38;19.60;;;;;;;;;;5014316;28;20029;-46
2021/03/09 04:54:59;;;;;;;42.05;19.25;;;;;;;;;;5013950;28;20030;-46
2021/03/09 04:57:38;;;;;;;34.47;16.63;;;;;;;;;;5013692;28;20026;-46
2021/03/09 05:00:06;;;;;;;27.60;15.18;;;;;;;;;;5013932;28;20022;-47
2021/03/09 05:02:32;;;;;;;30.77;15.88;;;;;;;;;;5013362;28;20038;-47
2021/03/09 05:04:58;;;;;;;28.08;14.75;;;;;;;;;;5013637;28;20045;-46
2021/03/09 05:07:24;;;;;;;25.88;14.55;;;;;;;;;;5013400;28;20033;-49
2021/03/09 05:09:50;;;;;;;24.48;14.18;;;;;;;;;;5013443;28;20030;-47
2021/03/09 05:12:16;;;;;;;26.70;14.40;;;;;;;;;;5013461;28;20022;-47
2021/03/09 05:14:42;;;;;;;23.52;14.20;;;;;;;;;;5013467;28;20025;-48
2021/03/09 05:17:08;;;;;;;24.60;14.38;;;;;;;;;;5013197;28;20025;-46
2021/03/09 05:19:34;;;;;;;27.63;14.95;;;;;;;;;;5013736;28;20365;-46
2021/03/09 05:22:01;;;;;;;25.08;14.35;;;;;;;;;;5013437;28;20026;-47
2021/03/09 05:24:27;;;;;;;30.38;14.45;;;;;;;;;;5013406;28;20370;-50
2021/03/09 05:26:53;;;;;;;26.35;13.68;;;;;;;;;;5013210;28;20018;-46
2021/03/09 05:29:19;;;;;;;25.90;13.27;;;;;;;;;;5013119;28;20123;-47
2021/03/09 05:31:45;;;;;;;24.52;13.77;;;;;;;;;;5012938;28;20100;-48
2021/03/09 05:34:11;;;;;;;23.75;12.88;;;;;;;;;;5013037;28;20036;-46
2021/03/09 05:36:37;;;;;;;26.48;13.82;;;;;;;;;;5012984;28;20473;-47
2021/03/09 05:39:04;;;;;;;21.88;12.88;;;;;;;;;;5013119;28;20108;-49
2021/03/09 05:41:30;;;;;;;23.98;13.20;;;;;;;;;;5013161;28;20454;-48
2021/03/09 05:43:56;;;;;;;22.45;13.25;;;;;;;;;;5012774;28;20469;-46
2021/03/09 05:46:23;;;;;;;21.30;13.00;;;;;;;;;;5012477;28;20026;-47
2021/03/09 05:48:49;;;;;;;23.88;14.13;;;;;;;;;;5012209;28;20092;-49
2021/03/09 05:51:15;;;;;;;22.88;13.18;;;;;;;;;;5013442;28;20340;-47
2021/03/09 05:53:41;;;;;;;23.25;13.75;;;;;;;;;;5013436;28;20030;-46
2021/03/09 05:56:07;;;;;;;24.10;14.75;;;;;;;;;;5009942;28;20443;-51
2021/03/09 05:58:34;;;;;;;24.73;14.73;;;;;;;;;;5013868;28;20022;-46
2021/03/09 06:01:00;;;;;;;25.45;14.98;;;;;;;;;;4998601;28;20055;-46
2021/03/09 06:03:27;;;;;;;27.25;14.32;;;;;;;;;;5002613;28;20453;-46
2021/03/09 06:05:53;;;;;;;27.90;15.25;;;;;;;;;;4993704;28;20418;-46
2021/03/09 06:08:19;;;;;;;29.90;15.48;;;;;;;;;;4993736;28;20381;-48
2021/03/09 06:10:46;;;;;;;25.98;14.32;;;;;;;;;;4993858;28;20049;-45
2021/03/09 06:13:30;;;;;;;34.78;17.85;;;;;;;;;;4993869;28;20084;-47
2021/03/09 06:15:56;;;;;;;36.40;17.85;;;;;;;;;;4993584;28;20509;-47
2021/03/09 06:18:25;;;;;;;35.90;19.55;;;;;;;;;;4993271;28;20061;-47
2021/03/09 06:21:14;;;;;;;40.67;20.20;;;;;;;;;;4993522;28;20458;-45
2021/03/09 06:23:41;;;;;;;40.55;20.77;;;;;;;;;;4993502;28;20142;-45
2021/03/09 06:26:26;;;;;;;37.97;19.17;;;;;;;;;;4993757;28;20084;-47
2021/03/09 06:29:12;;;;;;;34.85;17.77;;;;;;;;;;4993241;28;20035;-49
2021/03/09 06:31:38;;;;;;;35.67;19.10;;;;;;;;;;4993568;28;20022;-47
2021/03/09 06:34:22;;;;;;;35.47;16.38;;;;;;;;;;4993511;28;20385;-45
2021/03/09 06:37:01;;;;;;;29.70;15.50;;;;;;;;;;5003067;28;20456;-46
2021/03/09 06:39:57;;;;;;;28.00;15.27;;;;;;;;;;5002519;28;20136;-44
2021/03/09 06:42:27;;;;;;;32.15;17.23;;;;;;;;;;5015445;28;20110;-48
2021/03/09 06:44:55;;;;;;;31.05;15.75;;;;;;;;;;5032775;28;20025;-54
2021/03/09 06:47:41;;;;;;;30.08;16.60;;;;;;;;;;5025967;28;20465;-46
2021/03/09 06:50:09;;;;;;;27.00;15.32;;;;;;;;;;4989157;28;20127;-45
2021/03/09 06:52:35;;;;;;;31.20;16.38;;;;;;;;;;5012583;28;20033;-46
2021/03/09 06:55:01;;;;;;;33.72;17.45;;;;;;;;;;5017478;28;20025;-49
2021/03/09 06:57:27;;;;;;;31.00;16.75;;;;;;;;;;5019242;28;20630;-46
2021/03/09 06:59:55;;;;;;;32.20;17.25;;;;;;;;;;5028005;28;20026;-48
2021/03/09 07:02:21;;;;;;;26.95;15.30;;;;;;;;;;5021532;28;20437;-48
2021/03/09 07:04:48;;;;;;;26.00;15.32;;;;;;;;;;5018809;28;20537;-48
2021/03/09 07:07:16;;;;;;;33.33;16.70;;;;;;;;;;5021938;28;20028;-44
2021/03/09 07:09:56;;;;;;;32.92;17.15;;;;;;;;;;5020351;28;20065;-51
2021/03/09 07:12:22;;;;;;;28.90;16.25;;;;;;;;;;5011747;28;20032;-47
2021/03/09 07:14:49;;;;;;;34.47;17.73;;;;;;;;;;5002246;28;20052;-48
2021/03/09 07:17:19;;;;;;;39.25;18.40;;;;;;;;;;4992845;28;20034;-46
2021/03/09 07:19:45;;;;;;;28.70;15.40;;;;;;;;;;4999252;28;20097;-46
2021/03/09 07:22:12;;;;;;;27.67;14.25;;;;;;;;;;4994926;28;20454;-47
2021/03/09 07:24:50;;;;;;;27.08;15.02;;;;;;;;;;5009205;28;20029;-48
2021/03/09 07:27:21;;;;;;;26.70;14.77;;;;;;;;;;5011922;28;20018;-46
2021/03/09 07:29:50;;;;;;;26.92;15.10;;;;;;;;;;5011663;28;20531;-48
2021/03/09 07:32:18;;;;;;;26.15;14.48;;;;;;;;;;5011808;28;20024;-51
2021/03/09 07:34:44;;;;;;;31.95;17.25;;;;;;;;;;5012114;28;20049;-48
2021/03/09 07:37:10;;;;;;;37.78;18.90;;;;;;;;;;5011702;28;20029;-48
2021/03/09 07:39:38;;;;;;;41.53;19.50;;;;;;;;;;5008835;28;20054;-46
2021/03/09 07:42:05;;;;;;;47.80;22.85;;;;;;;;;;4992318;28;20049;-48
2021/03/09 07:44:31;;;;;;;47.97;21.50;;;;;;;;;;4994645;28;20423;-45
2021/03/09 07:46:59;;;;;;;48.55;20.35;;;;;;;;;;4990697;28;20023;-49
2021/03/09 07:49:25;;;;;;;47.58;22.38;;;;;;;;;;4991813;28;20045;-48
2021/03/09 07:52:25;;;;;;;29.92;17.42;;;;;;;;;;4992502;28;20033;-44
2021/03/09 07:55:04;;;;;;;31.98;17.50;;;;;;;;;;4976986;28;20030;-48
2021/03/09 07:57:31;;;;;;;37.97;18.40;;;;;;;;;;5003526;28;20030;-47
2021/03/09 07:59:58;;;;;;;41.45;21.02;;;;;;;;;;4997189;28;20033;-48
2021/03/09 08:02:42;;;;;;;37.13;20.98;;;;;;;;;;5011312;28;20034;-47
2021/03/09 08:05:16;;;;;;;35.72;17.83;;;;;;;;;;5011776;28;20028;-48
2021/03/09 08:07:50;;;;;;;31.85;16.65;;;;;;;;;;5031046;28;20538;-46
2021/03/09 08:10:42;;;;;;;31.48;18.05;;;;;;;;;;5031108;28;20575;-47
2021/03/09 08:13:08;;;;;;;32.33;17.15;;;;;;;;;;5016489;28;20424;-49
2021/03/09 08:15:35;;;;;;;32.83;17.35;;;;;;;;;;5007773;28;20041;-48
2021/03/09 08:18:19;;;;;;;28.95;16.38;;;;;;;;;;5009054;28;20024;-47
2021/03/09 08:20:48;;;;;;;27.95;15.60;;;;;;;;;;5005666;28;20032;-45
2021/03/09 08:23:33;;;;;;;26.05;15.70;;;;;;;;;;4998226;28;20019;-45
2021/03/09 08:26:00;;;;;;;33.10;18.45;;;;;;;;;;5003595;28;20386;-48
2021/03/09 08:28:33;;;;;;;31.42;16.70;;;;;;;;;;4994954;28;20034;-51
2021/03/09 08:31:15;;;;;;;33.15;17.98;;;;;;;;;;5001376;28;20037;-46
2021/03/09 08:33:41;;;;;;;31.67;16.33;;;;;;;;;;5004472;28;20034;-44
2021/03/09 08:36:23;;;;;;;34.90;17.42;;;;;;;;;;5008175;28;20037;-45
2021/03/09 08:39:15;;;;;;;30.65;17.42;;;;;;;;;;5014342;28;20084;-45
2021/03/09 08:41:41;;;;;;;30.75;17.27;;;;;;;;;;5005401;28;20033;-51
2021/03/09 08:44:16;;;;;;;31.88;18.17;;;;;;;;;;4995058;28;20027;-48
2021/03/09 08:46:56;;;;;;;34.20;18.30;;;;;;;;;;4995060;28;20026;-48
2021/03/09 08:49:37;;;;;;;32.58;16.98;;;;;;;;;;5001477;28;20096;-48
2021/03/09 08:52:07;;;;;;;35.45;19.48;;;;;;;;;;5013972;28;20045;-46
2021/03/09 08:54:40;;;;;;;36.58;19.65;;;;;;;;;;5014205;28;20405;-53
2021/03/09 08:57:06;;;;;;;;;;;;;;;;;;5013838;28;20037;-53
2021/03/09 08:59:33;;;;;;;32.67;17.75;;;;;;;;;;5012739;28;19909;-44
2021/03/09 09:02:03;;;;;;;37.85;19.23;;;;;;;;;;5033105;28;20099;-48
2021/03/09 09:04:30;;;;;;;43.53;22.30;;;;;;;;;;5033168;28;20025;-48
2021/03/09 09:06:56;;;;;;;37.88;21.52;;;;;;;;;;5033573;28;20017;-50
2021/03/09 09:09:38;;;;;;;38.13;20.35;;;;;;;;;;5033400;28;20037;-46
2021/03/09 09:12:22;;;;;;;38.17;18.15;;;;;;;;;;5031805;28;20116;-46
2021/03/09 09:14:59;;;;;;;34.15;17.92;;;;;;;;;;5031746;28;20061;-48
2021/03/09 09:17:29;;;;;;;29.45;16.95;;;;;;;;;;5021084;28;20085;-48
2021/03/09 09:19:56;;;;;;;30.67;16.90;;;;;;;;;;4991380;28;20470;-46
2021/03/09 09:22:24;;;;;;;29.45;15.95;;;;;;;;;;4996595;28;20466;-47
2021/03/09 09:24:54;;;;;;;27.60;15.55;;;;;;;;;;5013647;28;20026;-46
2021/03/09 09:27:20;;;;;;;34.67;20.27;;;;;;;;;;4996669;28;20026;-46
2021/03/09 09:29:56;;;;;;;34.47;18.40;;;;;;;;;;5004491;28;20042;-44
2021/03/09 09:32:22;;;;;;;37.38;19.52;;;;;;;;;;5007566;28;20057;-44
2021/03/09 09:34:57;;;;;;;38.33;19.65;;;;;;;;;;5016644;28;20089;-47
2021/03/09 09:37:23;;;;;;;36.50;18.65;;;;;;;;;;5010388;28;20018;-46
2021/03/09 09:39:49;;;;;;;33.55;18.92;;;;;;;;;;5013268;28;20611;-44
2021/03/09 09:42:16;;;;;;;32.72;17.25;;;;;;;;;;5024019;28;20025;-46
2021/03/09 09:44:43;;;;;;;31.85;18.13;;;;;;;;;;5015252;28;20029;-49
2021/03/09 09:47:10;;;;;;;30.60;16.80;;;;;;;;;;5015691;28;20515;-49
2021/03/09 09:49:37;;;;;;;26.50;15.80;;;;;;;;;;5018667;28;20029;-47
2021/03/09 09:52:10;;;;;;;30.65;17.25;;;;;;;;;;5021363;28;20061;-45
2021/03/09 09:54:36;;;;;;;31.35;16.85;;;;;;;;;;5013037;28;20095;-47
2021/03/09 09:57:09;;;;;;;30.77;17.58;;;;;;;;;;5009047;28;20054;-47
2021/03/09 09:59:35;;;;;;;27.13;15.88;;;;;;;;;;4993153;28;20165;-43
2021/03/09 10:02:13;;;;;;;24.50;14.07;;;;;;;;;;4992972;28;20054;-44
2021/03/09 10:04:39;;;;;;;27.35;15.15;;;;;;;;;;4995244;28;20070;-45
2021/03/09 10:07:13;;;;;;;29.00;16.80;;;;;;;;;;5005232;28;20034;-44
2021/03/09 10:09:39;;;;;;;30.90;15.57;;;;;;;;;;5001768;28;20087;-44
2021/03/09 10:12:06;;;;;;;29.17;15.82;;;;;;;;;;5017397;28;20017;-44
2021/03/09 10:14:33;;;;;;;24.50;15.85;;;;;;;;;;5021765;28;20071;-47
2021/03/09 10:17:00;;;;;;;25.15;15.23;;;;;;;;;;5020607;28;20116;-47
2021/03/09 10:19:34;;;;;;;32.08;18.40;;;;;;;;;;5020554;28;20536;-46
2021/03/09 10:22:00;;;;;;;30.13;17.80;;;;;;;;;;5018602;28;20072;-45
2021/03/09 10:24:29;;;;;;;27.38;15.88;;;;;;;;;;5023067;28;20808;-46
2021/03/09 10:26:56;;;;;;;32.80;20.02;;;;;;;;;;5017441;28;20022;-45
2021/03/09 10:29:24;;;;;;;33.28;18.70;;;;;;;;;;5012884;28;20112;-47
2021/03/09 10:31:53;;;;;;;28.63;16.15;;;;;;;;;;5012713;28;20065;-50
2021/03/09 10:34:21;;;;;;;29.90;16.33;;;;;;;;;;5002349;28;20125;-46
2021/03/09 10:37:06;;;;;;;32.30;17.73;;;;;;;;;;5012384;28;20042;-46
2021/03/09 10:39:33;;;;;;;30.92;17.45;;;;;;;;;;5012672;28;20105;-47
2021/03/09 10:42:18;;;;;;;36.45;18.98;;;;;;;;;;5030655;28;20025;-48
2021/03/09 10:44:44;;;;;;;39.22;20.60;;;;;;;;;;5032044;28;20467;-49
2021/03/09 10:47:12;;;;;;;33.50;17.95;;;;;;;;;;5032036;28;20380;-47
2021/03/09 10:49:38;;;;;;;28.15;16.67;;;;;;;;;;5031578;28;20088;-46
2021/03/09 10:52:05;;;;;;;29.42;16.70;;;;;;;;;;5012348;28;20080;-45
2021/03/09 10:54:32;;;;;;;32.17;17.80;;;;;;;;;;5012687;28;20024;-51
2021/03/09 10:56:58;;;;;;;30.70;17.25;;;;;;;;;;5012262;28;20061;-47
2021/03/09 10:59:25;;;;;;;32.85;19.38;;;;;;;;;;5012399;28;20018;-45
2021/03/09 11:01:51;;;;;;;37.30;20.35;;;;;;;;;;5012262;28;20179;-43
2021/03/09 11:04:17;;;;;;;35.00;21.95;;;;;;;;;;5012100;28;20068;-43
2021/03/09 11:06:43;;;;;;;30.95;17.38;;;;;;;;;;5012338;28;20014;-47
2021/03/09 11:09:09;;;;;;;31.33;17.20;;;;;;;;;;5012575;28;20381;-45
2021/03/09 11:11:35;;;;;;;26.92;15.75;;;;;;;;;;5012502;28;20029;-46
2021/03/09 11:14:01;;;;;;;29.80;18.52;;;;;;;;;;5012231;28;20029;-51
2021/03/09 11:16:30;;;;;;;32.40;18.83;;;;;;;;;;5012291;28;20493;-47
2021/03/09 11:18:57;;;;;;;30.73;16.77;;;;;;;;;;5009956;28;20037;-50
2021/03/09 11:21:23;;;;;;;24.75;14.00;;;;;;;;;;4999890;28;20026;-47
2021/03/09 11:23:51;;;;;;;29.10;17.10;;;;;;;;;;4992892;28;20031;-50
2021/03/09 11:26:17;;;;;;;41.08;23.20;;;;;;;;;;5012108;28;20060;-45
2021/03/09 11:28:43;;;;;;;38.28;22.00;;;;;;;;;;5004271;28;20081;-46
2021/03/09 11:31:09;;;;;;;34.03;18.35;;;;;;;;;;4999908;28;20076;-47
2021/03/09 11:33:36;;;;;;;31.70;17.73;;;;;;;;;;4997328;28;20118;-46
2021/03/09 11:36:02;;;;;;;31.92;19.35;;;;;;;;;;5003512;28;20037;-46
2021/03/09 11:38:28;;;;;;;34.13;17.52;;;;;;;;;;4992552;28;20489;-47
2021/03/09 11:40:54;;;;;;;29.52;16.30;;;;;;;;;;4992713;28;20033;-46
2021/03/09 11:43:21;;;;;;;25.88;14.20;;;;;;;;;;4992550;28;20081;-47
2021/03/09 11:45:47;;;;;;;28.08;15.05;;;;;;;;;;4998500;28;20473;-46
2021/03/09 11:48:13;;;;;;;34.15;18.85;;;;;;;;;;5015963;28;20446;-46
2021/03/09 11:50:39;;;;;;;30.70;17.30;;;;;;;;;;5016020;28;20026;-45
2021/03/09 11:53:05;;;;;;;22.35;13.23;;;;;;;;;;5016131;28;20022;-46
2021/03/09 11:55:31;;;;;;;20.25;11.85;;;;;;;;;;5015784;28;20026;-44
2021/03/09 11:57:57;;;;;;;15.07;8.93;;;;;;;;;;5016113;28;20033;-43
2021/03/09 12:00:24;;;;;;;16.75;10.80;;;;;;;;;;5015273;28;20053;-45
2021/03/09 12:02:50;;;;;;;24.52;13.35;;;;;;;;;;5015890;28;20022;-47
2021/03/09 12:05:16;;;;;;;18.33;10.93;;;;;;;;;;5015490;28;20022;-45
2021/03/09 12:07:42;;;;;;;18.63;10.38;;;;;;;;;;5015933;28;20021;-45
2021/03/09 12:10:09;;;;;;;19.60;12.00;;;;;;;;;;5015559;28;20022;-45
2021/03/09 12:12:35;;;;;;;20.58;10.95;;;;;;;;;;5015729;28;20030;-46
2021/03/09 12:15:01;;;;;;;20.63;12.07;;;;;;;;;;5015500;28;20030;-46
2021/03/09 12:17:27;;;;;;;20.77;12.18;;;;;;;;;;5015715;28;20076;-46
2021/03/09 12:19:54;;;;;;;19.58;12.50;;;;;;;;;;5015703;28;20457;-47
2021/03/09 12:22:20;;;;;;;22.13;12.02;;;;;;;;;;5015152;28;20021;-44
2021/03/09 12:24:46;;;;;;;17.95;11.68;;;;;;;;;;5015766;28;20128;-44
2021/03/09 12:27:12;;;;;;;21.70;12.30;;;;;;;;;;5015363;28;20076;-46
2021/03/09 12:29:38;;;;;;;20.23;11.57;;;;;;;;;;5015387;28;20485;-45
2021/03/09 12:32:04;;;;;;;18.48;10.38;;;;;;;;;;5015230;28;20109;-46
2021/03/09 12:34:31;;;;;;;18.00;10.95;;;;;;;;;;5015454;28;20350;-46
2021/03/09 12:36:57;;;;;;;17.88;10.05;;;;;;;;;;5015155;28;20037;-46
2021/03/09 12:39:23;;;;;;;19.98;10.93;;;;;;;;;;5015220;28;20604;-45
2021/03/09 12:41:49;;;;;;;19.60;10.75;;;;;;;;;;5014870;28;20034;-45
2021/03/09 12:44:15;;;;;;;17.95;10.80;;;;;;;;;;4997774;28;20030;-45
2021/03/09 12:46:41;;;;;;;19.45;11.52;;;;;;;;;;5015140;28;20049;-46
2021/03/09 12:49:07;;;;;;;19.38;10.82;;;;;;;;;;5014714;28;20544;-46
2021/03/09 12:51:33;;;;;;;18.63;10.10;;;;;;;;;;5014613;28;20030;-46
2021/03/09 12:54:00;;;;;;;19.75;10.07;;;;;;;;;;5014726;28;20022;-46
2021/03/09 12:56:26;;;;;;;19.77;10.15;;;;;;;;;;5014376;28;20084;-45
2021/03/09 12:58:54;;;;;;;27.60;10.52;;;;;;;;;;5014531;28;20065;-45
2021/03/09 13:01:20;;;;;;;15.90;8.73;;;;;;;;;;5014229;28;20054;-45
2021/03/09 13:03:46;;;;;;;16.08;9.45;;;;;;;;;;5014586;28;20063;-46
2021/03/09 13:06:12;;;;;;;14.18;8.25;;;;;;;;;;5014669;28;20048;-45
2021/03/09 13:08:38;;;;;;;15.25;9.13;;;;;;;;;;4996818;28;20048;-46
2021/03/09 13:11:04;;;;;;;18.45;10.77;;;;;;;;;;5014708;28;20018;-45
2021/03/09 13:13:30;;;;;;;20.55;10.43;;;;;;;;;;5014418;28;20060;-44
2021/03/09 13:15:56;;;;;;;16.40;10.93;;;;;;;;;;5014548;28;20029;-47
2021/03/09 13:18:23;;;;;;;19.23;10.40;;;;;;;;;;5014501;28;20030;-47
2021/03/09 13:20:49;;;;;;;21.50;10.90;;;;;;;;;;5014103;28;20454;-49
2021/03/09 13:23:15;;;;;;;13.32;8.52;;;;;;;;;;5014577;28;20022;-46
2021/03/09 13:25:41;;;;;;;17.25;9.75;;;;;;;;;;5014379;28;20377;-47
2021/03/09 13:28:07;;;;;;;17.90;10.35;;;;;;;;;;5013930;28;20068;-46
2021/03/09 13:30:33;;;;;;;21.65;11.05;;;;;;;;;;5014175;28;20059;-47
2021/03/09 13:32:59;;;;;;;15.55;10.80;;;;;;;;;;5014027;28;20034;-46
2021/03/09 13:35:26;;;;;;;18.65;11.38;;;;;;;;;;5013882;28;20033;-46
2021/03/09 13:37:53;;;;;;;18.48;9.73;;;;;;;;;;5014036;28;20070;-46
2021/03/09 13:40:20;;;;;;;18.90;10.65;;;;;;;;;;5013913;28;20026;-47
2021/03/09 13:42:46;;;;;;;16.70;9.63;;;;;;;;;;5014220;28;20026;-47
2021/03/09 13:45:14;;;;;;;16.73;9.80;;;;;;;;;;5013728;28;20021;-47
2021/03/09 13:47:40;;;;;;;18.33;9.75;;;;;;;;;;4996227;28;20022;-46
2021/03/09 13:50:08;;;;;;;17.38;9.13;;;;;;;;;;5013544;28;20057;-46
2021/03/09 13:52:34;;;;;;;19.55;9.60;;;;;;;;;;5013419;28;20049;-47
2021/03/09 13:55:00;;;;;;;15.05;9.55;;;;;;;;;;5013799;28;20034;-44
2021/03/09 13:57:26;;;;;;;21.58;10.80;;;;;;;;;;5013559;28;20364;-45
2021/03/09 13:59:52;;;;;;;17.23;10.32;;;;;;;;;;5013230;28;20018;-47
2021/03/09 14:02:18;;;;;;;15.85;8.45;;;;;;;;;;5013664;28;20030;-45
2021/03/09 14:04:45;;;;;;;17.25;10.40;;;;;;;;;;5013390;28;20080;-45
2021/03/09 14:07:12;;;;;;;16.77;9.60;;;;;;;;;;5013263;28;20034;-45
2021/03/09 14:09:38;;;;;;;16.45;9.75;;;;;;;;;;5012214;28;20046;-45
2021/03/09 14:12:05;;;;;;;16.20;9.55;;;;;;;;;;5013631;28;20026;-45
2021/03/09 14:14:31;;;;;;;17.42;9.73;;;;;;;;;;5013844;28;20104;-46
2021/03/09 14:16:58;;;;;;;21.83;11.25;;;;;;;;;;5013575;28;20025;-45
2021/03/09 14:19:24;;;;;;;17.60;10.10;;;;;;;;;;5013161;28;20038;-46
2021/03/09 14:21:50;;;;;;;18.40;10.20;;;;;;;;;;5013182;28;20037;-45
2021/03/09 14:24:16;;;;;;;18.00;10.40;;;;;;;;;;5013086;28;21022;-46
2021/03/09 14:26:42;;;;;;;19.02;10.80;;;;;;;;;;5013284;28;20018;-47
2021/03/09 14:29:08;;;;;;;17.13;9.20;;;;;;;;;;5012855;28;20034;-45